createdAt,value
2022-09-28T00:01:26.330Z,98246.69
2022-09-28T00:03:58.438Z,98245.03
2022-09-28T00:06:29.395Z,98238.88
2022-09-28T00:08:58.552Z,98235.03
2022-09-28T00:11:29.579Z,98227.63
2022-09-28T00:14:02.159Z,98233.94
2022-09-28T00:16:33.176Z,98229.94
2022-09-28T00:19:02.141Z,98220.16
2022-09-28T00:21:32.584Z,98220.66
2022-09-28T00:24:17.498Z,98224.78
2022-09-28T00:26:51.803Z,98228.66
2022-09-28T00:29:39.615Z,98238.47
2022-09-28T00:32:10.857Z,98234.50
2022-09-28T00:34:45.749Z,98224.13
2022-09-28T00:37:15.074Z,98224.50
2022-09-28T00:39:43.503Z,98218.94
2022-09-28T00:42:14.653Z,98213.97
2022-09-28T00:44:42.461Z,98227.06
2022-09-28T00:47:13.808Z,98223.09
2022-09-28T00:49:45.615Z,98226.47
2022-09-28T00:52:16.281Z,98229.94
2022-09-28T00:54:46.161Z,98210.84
2022-09-28T00:57:14.318Z,98215.38
2022-09-28T00:59:42.433Z,98220.78
2022-09-28T01:02:10.595Z,98227.91
2022-09-28T01:04:38.840Z,98236.09
2022-09-28T01:07:08.876Z,98231.31
2022-09-28T01:09:39.130Z,98227.84
2022-09-28T01:12:07.662Z,98224.84
2022-09-28T01:14:35.130Z,98225.19
2022-09-28T01:17:41.191Z,98223.59
2022-09-28T01:20:21.109Z,98230.19
2022-09-28T01:23:17.272Z,98235.06
2022-09-28T01:25:47.906Z,98234.66
2022-09-28T01:28:17.489Z,98232.84
2022-09-28T01:30:49.773Z,98241.13
2022-09-28T01:33:22.854Z,98234.44
2022-09-28T01:35:55.700Z,98241.00
2022-09-28T01:38:26.998Z,98241.34
2022-09-28T01:40:55.564Z,98240.31
2022-09-28T01:43:25.387Z,98236.97
2022-09-28T01:46:00.594Z,98240.66
2022-09-28T01:48:36.165Z,98259.53
2022-09-28T01:51:04.793Z,98255.81
2022-09-28T01:53:36.551Z,98255.47
2022-09-28T01:56:12.586Z,98246.84
2022-09-28T01:58:52.618Z,98245.75
2022-09-28T02:01:41.954Z,98250.47
2022-09-28T02:04:17.217Z,98253.66
2022-09-28T02:06:51.967Z,98247.75
2022-09-28T02:09:24.954Z,98246.72
2022-09-28T02:12:03.103Z,98248.94
2022-09-28T02:14:31.831Z,98253.19
2022-09-28T02:17:02.017Z,98253.75
2022-09-28T02:19:31.125Z,98251.19
2022-09-28T02:22:23.840Z,98240.47
2022-09-28T02:25:11.132Z,98252.59
2022-09-28T02:27:55.371Z,98245.34
2022-09-28T02:30:23.126Z,98248.09
2022-09-28T02:32:53.628Z,98246.25
2022-09-28T02:35:22.144Z,98249.78
2022-09-28T02:37:50.421Z,98260.31
2022-09-28T02:40:22.418Z,98256.78
2022-09-28T02:43:00.085Z,98256.47
2022-09-28T02:45:36.837Z,98253.88
2022-09-28T02:48:04.636Z,98253.31
2022-09-28T02:50:46.544Z,98261.81
2022-09-28T02:53:37.223Z,98259.75
2022-09-28T02:56:07.577Z,98266.09
2022-09-28T02:58:54.431Z,98275.22
2022-09-28T03:01:51.241Z,98273.56
2022-09-28T03:04:21.555Z,98279.50
2022-09-28T03:06:55.260Z,98288.34
2022-09-28T03:09:29.346Z,98298.19
2022-09-28T03:11:59.836Z,98291.84
2022-09-28T03:14:28.091Z,98303.41
2022-09-28T03:16:56.308Z,98299.31
2022-09-28T03:19:28.256Z,98296.91
2022-09-28T03:21:56.029Z,98307.56
2022-09-28T03:24:23.441Z,98302.06
2022-09-28T03:26:51.027Z,98306.00
2022-09-28T03:29:20.528Z,98307.03
2022-09-28T03:31:49.640Z,98295.88
2022-09-28T03:34:17.120Z,98297.75
2022-09-28T03:36:44.849Z,98297.44
2022-09-28T03:39:12.295Z,98292.53
2022-09-28T03:41:39.729Z,98295.69
2022-09-28T03:44:07.543Z,98302.75
2022-09-28T03:46:35.083Z,98306.44
2022-09-28T03:49:02.818Z,98306.72
2022-09-28T03:51:30.566Z,98309.53
2022-09-28T03:53:58.016Z,98307.59
2022-09-28T03:56:25.989Z,98306.38
2022-09-28T03:58:53.744Z,98309.66
2022-09-28T04:01:21.311Z,98304.16
2022-09-28T04:03:54.025Z,98299.41
2022-09-28T04:06:22.643Z,98303.19
2022-09-28T04:08:50.516Z,98301.41
2022-09-28T04:11:18.067Z,98305.22
2022-09-28T04:13:49.568Z,98298.16
2022-09-28T04:16:18.565Z,98294.37
2022-09-28T04:18:47.869Z,98297.06
2022-09-28T04:21:17.369Z,98293.56
2022-09-28T04:23:45.585Z,98297.06
2022-09-28T04:26:20.333Z,98291.88
2022-09-28T04:29:07.173Z,98288.38
2022-09-28T04:31:56.287Z,98294.37
2022-09-28T04:34:25.643Z,98288.19
2022-09-28T04:36:53.072Z,98288.28
2022-09-28T04:39:20.505Z,98294.44
2022-09-28T04:41:48.897Z,98300.69
2022-09-28T04:44:16.994Z,98299.22
2022-09-28T04:46:45.949Z,98310.19
2022-09-28T04:49:15.568Z,98304.25
2022-09-28T04:51:43.187Z,98300.09
2022-09-28T04:54:10.649Z,98291.13
2022-09-28T04:56:38.356Z,98281.81
2022-09-28T04:59:06.201Z,98291.75
2022-09-28T05:01:34.183Z,98286.66
2022-09-28T05:04:05.660Z,98289.03
2022-09-28T05:06:33.366Z,98294.31
2022-09-28T05:09:00.896Z,98304.09
2022-09-28T05:11:28.887Z,98305.16
2022-09-28T05:13:56.683Z,98304.81
2022-09-28T05:16:26.233Z,98306.28
2022-09-28T05:18:56.038Z,98308.13
2022-09-28T05:21:25.433Z,98311.72
2022-09-28T05:23:56.090Z,98311.41
2022-09-28T05:26:24.573Z,98314.03
2022-09-28T05:28:52.031Z,98325.06
2022-09-28T05:31:21.607Z,98320.75
2022-09-28T05:33:49.683Z,98319.69
2022-09-28T05:36:17.123Z,98315.47
2022-09-28T05:38:44.619Z,98310.88
2022-09-28T05:41:12.442Z,98309.59
2022-09-28T05:43:39.954Z,98321.66
2022-09-28T05:46:07.484Z,98315.91
2022-09-28T05:48:35.814Z,98319.31
2022-09-28T05:51:03.301Z,98309.81
2022-09-28T05:53:30.971Z,98306.78
2022-09-28T05:55:59.854Z,98311.59
2022-09-28T05:58:28.481Z,98309.72
2022-09-28T06:00:56.656Z,98305.72
2022-09-28T06:03:25.016Z,98314.75
2022-09-28T06:05:52.478Z,98314.72
2022-09-28T06:08:19.978Z,98320.75
2022-09-28T06:10:48.101Z,98321.03
2022-09-28T06:13:15.655Z,98315.81
2022-09-28T06:15:43.712Z,98318.50
2022-09-28T06:18:16.431Z,98320.47
2022-09-28T06:20:44.115Z,98321.31
2022-09-28T06:23:13.302Z,98307.63
2022-09-28T06:25:41.281Z,98318.22
2022-09-28T06:28:13.432Z,98317.09
2022-09-28T06:30:43.102Z,98320.62
2022-09-28T06:33:15.078Z,98319.34
2022-09-28T06:35:42.861Z,98321.97
2022-09-28T06:38:11.024Z,98328.09
2022-09-28T06:40:38.926Z,98333.78
2022-09-28T06:43:12.176Z,98333.22
2022-09-28T06:45:51.063Z,98330.34
2022-09-28T06:48:20.218Z,98326.00
2022-09-28T06:50:47.750Z,98331.03
2022-09-28T06:53:17.602Z,98328.28
2022-09-28T06:55:49.146Z,98328.84
2022-09-28T06:58:19.768Z,98328.59
2022-09-28T07:00:50.005Z,98328.59
2022-09-28T07:03:22.284Z,98332.25
2022-09-28T07:05:53.904Z,98326.28
2022-09-28T07:08:25.921Z,98328.84
2022-09-28T07:10:56.325Z,98328.50
2022-09-28T07:16:19.619Z,98325.06
2022-09-28T07:18:49.226Z,98331.53
2022-09-28T07:21:27.809Z,98324.13
2022-09-28T07:23:57.519Z,98321.78
2022-09-28T07:26:26.810Z,98324.56
2022-09-28T07:28:55.919Z,98316.56
2022-09-28T07:31:25.281Z,98318.06
2022-09-28T07:33:53.869Z,98318.53
2022-09-28T07:36:22.775Z,98315.66
2022-09-28T07:38:51.249Z,98312.59
2022-09-28T07:41:32.127Z,98307.84
2022-09-28T07:44:05.439Z,98303.81
2022-09-28T07:46:34.741Z,98315.25
2022-09-28T07:49:08.349Z,98324.56
2022-09-28T07:51:39.567Z,98325.16
2022-09-28T07:54:09.285Z,98328.22
2022-09-28T07:56:37.796Z,98327.53
2022-09-28T07:59:05.646Z,98336.31
2022-09-28T08:01:33.924Z,98335.84
2022-09-28T08:04:01.834Z,98330.06
2022-09-28T08:06:30.326Z,98333.44
2022-09-28T08:08:59.950Z,98329.50
2022-09-28T08:11:29.636Z,98321.22
2022-09-28T08:13:58.195Z,98316.28
2022-09-28T08:16:27.626Z,98319.56
2022-09-28T08:18:55.536Z,98308.63
2022-09-28T08:21:42.079Z,98295.38
2022-09-28T08:24:09.898Z,98295.31
2022-09-28T08:26:37.276Z,98292.94
2022-09-28T08:29:04.792Z,98291.22
2022-09-28T08:31:34.328Z,98291.41
2022-09-28T08:34:03.022Z,98287.25
2022-09-28T08:36:31.770Z,98294.47
2022-09-28T08:39:03.617Z,98312.91
2022-09-28T08:41:35.284Z,98322.03
2022-09-28T08:44:10.215Z,98320.22
2022-09-28T08:46:42.686Z,98317.13
2022-09-28T08:49:30.200Z,98328.19
2022-09-28T08:52:20.636Z,98328.69
2022-09-28T08:54:56.266Z,98329.88
2022-09-28T08:57:31.066Z,98323.53
2022-09-28T08:59:59.874Z,98312.47
2022-09-28T09:02:31.356Z,98310.28
2022-09-28T09:05:03.778Z,98299.41
2022-09-28T09:08:00.364Z,98303.59
2022-09-28T09:10:57.866Z,98305.78
2022-09-28T09:13:50.552Z,98299.59
2022-09-28T09:16:59.975Z,98299.25
2022-09-28T09:19:57.172Z,98295.16
2022-09-28T09:22:31.580Z,98291.16
2022-09-28T09:25:41.302Z,98293.28
2022-09-28T09:28:21.127Z,98296.94
2022-09-28T09:31:10.244Z,98299.41
2022-09-28T09:34:01.559Z,98293.06
2022-09-28T09:37:03.324Z,98290.03
2022-09-28T09:39:44.298Z,98293.37
2022-09-28T09:42:35.506Z,98296.50
2022-09-28T09:45:41.257Z,98293.00
2022-09-28T09:48:40.269Z,98297.28
2022-09-28T09:51:22.875Z,98293.16
2022-09-28T09:53:59.998Z,98291.53
2022-09-28T09:56:40.849Z,98291.63
2022-09-28T09:59:12.065Z,98290.31
2022-09-28T10:01:41.122Z,98289.31
2022-09-28T10:04:19.993Z,98285.03
2022-09-28T10:06:49.925Z,98288.38
2022-09-28T10:09:25.076Z,98296.94
2022-09-28T10:11:53.961Z,98299.97
2022-09-28T10:14:24.046Z,98305.25
2022-09-28T10:16:54.068Z,98307.28
2022-09-28T10:19:33.855Z,98303.25
2022-09-28T10:22:06.369Z,98303.94
2022-09-28T10:24:45.210Z,98302.16
2022-09-28T10:27:22.596Z,98294.28
2022-09-28T10:30:00.990Z,98302.34
2022-09-28T10:32:46.600Z,98305.19
2022-09-28T10:35:29.307Z,98307.91
2022-09-28T10:38:06.930Z,98303.91
2022-09-28T10:41:01.973Z,98294.56
2022-09-28T10:43:34.520Z,98300.75
2022-09-28T10:46:15.616Z,98304.66
2022-09-28T10:49:01.618Z,98302.69
2022-09-28T10:51:49.957Z,98298.22
2022-09-28T10:54:21.166Z,98292.88
2022-09-28T10:56:50.795Z,98293.78
2022-09-28T10:59:29.543Z,98293.34
2022-09-28T11:02:09.900Z,98300.87
2022-09-28T11:04:41.120Z,98279.44
2022-09-28T11:07:18.857Z,98284.16
2022-09-28T11:09:49.896Z,98275.28
2022-09-28T11:12:26.340Z,98273.47
2022-09-28T11:15:06.904Z,98270.19
2022-09-28T11:17:40.519Z,98270.00
2022-09-28T11:20:28.219Z,98257.94
2022-09-28T11:23:15.811Z,98264.31
2022-09-28T11:25:43.582Z,98262.31
2022-09-28T11:28:22.810Z,98254.44
2022-09-28T11:30:52.638Z,98248.66
2022-09-28T11:33:30.734Z,98260.22
2022-09-28T11:36:05.627Z,98258.69
2022-09-28T11:38:39.806Z,98259.81
2022-09-28T11:41:14.441Z,98256.22
2022-09-28T11:44:04.402Z,98251.84
2022-09-28T11:47:11.059Z,98257.09
2022-09-28T11:49:45.509Z,98257.34
2022-09-28T11:52:18.765Z,98251.44
2022-09-28T11:54:59.270Z,98255.34
2022-09-28T11:57:35.869Z,98241.84
2022-09-28T12:00:12.388Z,98239.16
2022-09-28T12:03:05.372Z,98237.47
2022-09-28T12:05:44.676Z,98227.50
2022-09-28T12:08:17.292Z,98219.84
2022-09-28T12:10:53.931Z,98214.12
2022-09-28T12:13:27.456Z,98225.19
2022-09-28T12:16:32.682Z,98204.59
2022-09-28T12:18:53.136Z,98211.38
2022-09-28T12:21:39.293Z,98222.91
2022-09-28T12:24:13.467Z,98213.91
2022-09-28T12:26:51.081Z,98213.56
2022-09-28T12:29:53.878Z,98207.47
2022-09-28T12:32:31.291Z,98206.00
2022-09-28T12:34:58.735Z,98189.56
2022-09-28T12:37:44.624Z,98191.22
2022-09-28T12:40:18.161Z,98195.91
2022-09-28T12:43:09.975Z,98189.47
2022-09-28T12:46:11.628Z,98189.31
2022-09-28T12:52:00.350Z,98193.75
2022-09-28T12:54:43.125Z,98189.19
2022-09-28T12:57:38.055Z,98185.66
2022-09-28T13:00:13.130Z,98180.94
2022-09-28T13:02:59.712Z,98186.78
2022-09-28T13:05:44.000Z,98182.31
2022-09-28T13:08:21.074Z,98177.56
2022-09-28T13:11:07.813Z,98171.81
2022-09-28T13:13:54.354Z,98172.44
2022-09-28T13:16:35.496Z,98185.63
2022-09-28T13:19:16.934Z,98183.50
2022-09-28T13:22:32.279Z,98185.03
2022-09-28T13:25:03.788Z,98197.44
2022-09-28T13:27:40.564Z,98185.09
2022-09-28T13:30:08.550Z,98180.97
2022-09-28T13:32:37.253Z,98174.06
2022-09-28T13:35:05.640Z,98173.78
2022-09-28T13:37:34.436Z,98173.88
2022-09-28T13:40:06.177Z,98174.09
2022-09-28T13:42:47.326Z,98175.28
2022-09-28T13:45:26.617Z,98188.09
2022-09-28T13:48:02.897Z,98181.53
2022-09-28T13:50:30.490Z,98187.25
2022-09-28T13:52:57.932Z,98182.22
2022-09-28T13:55:37.270Z,98183.16
2022-09-28T13:58:31.490Z,98183.03
2022-09-28T14:01:08.134Z,98180.41
2022-09-28T14:04:03.724Z,98183.22
2022-09-28T14:06:32.380Z,98193.06
2022-09-28T14:09:25.071Z,98191.16
2022-09-28T14:12:03.591Z,98183.66
2022-09-28T14:14:50.426Z,98184.66
2022-09-28T14:17:20.798Z,98182.00
2022-09-28T14:19:54.345Z,98177.00
2022-09-28T14:22:35.532Z,98180.13
2022-09-28T14:25:03.377Z,98176.25
2022-09-28T14:27:51.360Z,98168.28
2022-09-28T14:30:25.738Z,98172.81
2022-09-28T14:32:58.691Z,98170.19
2022-09-28T14:35:38.747Z,98159.66
2022-09-28T14:38:32.757Z,98157.56
2022-09-28T14:41:12.616Z,98165.25
2022-09-28T14:43:46.269Z,98158.13
2022-09-28T14:46:14.644Z,98162.16
2022-09-28T14:49:26.826Z,98160.06
2022-09-28T14:51:54.746Z,98158.44
2022-09-28T14:54:24.095Z,98153.16
2022-09-28T14:56:57.191Z,98153.41
2022-09-28T14:59:27.937Z,98151.28
2022-09-28T15:02:10.638Z,98143.94
2022-09-28T15:04:54.966Z,98138.09
2022-09-28T15:07:29.674Z,98139.00
2022-09-28T15:09:58.346Z,98143.78
2022-09-28T15:12:30.575Z,98133.09
2022-09-28T15:15:02.285Z,98130.66
2022-09-28T15:17:40.766Z,98130.56
2022-09-28T15:20:17.290Z,98129.41
2022-09-28T15:22:46.903Z,98125.63
2022-09-28T15:25:19.926Z,98130.66
2022-09-28T15:27:55.459Z,98124.00
2022-09-28T15:30:33.912Z,98121.41
2022-09-28T15:33:21.231Z,98111.81
2022-09-28T15:36:03.957Z,98123.59
2022-09-28T15:38:34.303Z,98121.28
2022-09-28T15:41:06.396Z,98130.03
2022-09-28T15:43:34.359Z,98131.31
2022-09-28T15:46:13.471Z,98136.09
2022-09-28T15:48:51.948Z,98136.47
2022-09-28T15:51:21.440Z,98137.97
2022-09-28T15:53:56.063Z,98139.84
2022-09-28T15:56:24.875Z,98140.03
2022-09-28T15:59:18.867Z,98133.34
2022-09-28T16:01:47.299Z,98139.22
2022-09-28T16:04:39.950Z,98140.06
2022-09-28T16:07:10.354Z,98137.94
2022-09-28T16:10:01.193Z,98131.25
2022-09-28T16:12:54.199Z,98130.06
2022-09-28T16:15:28.210Z,98129.81
2022-09-28T16:18:00.683Z,98120.25
2022-09-28T16:20:35.625Z,98127.72
2022-09-28T16:23:22.650Z,98128.38
2022-09-28T16:26:15.988Z,98126.50
2022-09-28T16:28:48.671Z,98133.78
2022-09-28T16:31:19.591Z,98133.59
2022-09-28T16:33:54.253Z,98135.88
2022-09-28T16:36:22.742Z,98133.37
2022-09-28T16:38:50.572Z,98139.84
2022-09-28T16:41:22.427Z,98138.59
2022-09-28T16:43:55.182Z,98144.03
2022-09-28T16:46:29.351Z,98137.75
2022-09-28T16:49:02.351Z,98143.63
2022-09-28T16:51:29.869Z,98139.44
2022-09-28T16:54:33.056Z,98141.50
2022-09-28T16:57:01.024Z,98136.28
2022-09-28T16:59:29.084Z,98145.28
2022-09-28T17:01:57.142Z,98149.22
2022-09-28T17:04:25.846Z,98148.81
2022-09-28T17:06:55.315Z,98143.16
2022-09-28T17:09:23.571Z,98140.25
2022-09-28T17:11:57.043Z,98141.03
2022-09-28T17:14:24.911Z,98142.75
2022-09-28T17:17:12.701Z,98149.63
2022-09-28T17:19:42.041Z,98145.69
2022-09-28T17:22:10.128Z,98153.81
2022-09-28T17:24:37.681Z,98143.97
2022-09-28T17:27:06.968Z,98148.16
2022-09-28T17:29:34.410Z,98150.88
2022-09-28T17:32:02.198Z,98152.78
2022-09-28T17:34:30.034Z,98157.37
2022-09-28T17:36:57.519Z,98150.88
2022-09-28T17:39:25.222Z,98155.87
2022-09-28T17:41:53.156Z,98150.69
2022-09-28T17:44:21.073Z,98155.06
2022-09-28T17:46:49.619Z,98152.94
2022-09-28T17:49:17.633Z,98149.81
2022-09-28T17:51:45.099Z,98149.00
2022-09-28T17:54:16.977Z,98153.16
2022-09-28T17:56:44.781Z,98150.19
2022-09-28T17:59:17.643Z,98157.31
2022-09-28T18:01:45.546Z,98163.13
2022-09-28T18:04:33.223Z,98162.47
2022-09-28T18:07:01.122Z,98172.50
2022-09-28T18:09:28.893Z,98173.09
2022-09-28T18:12:01.333Z,98170.38
2022-09-28T18:14:30.489Z,98171.00
2022-09-28T18:16:59.782Z,98173.88
2022-09-28T18:19:31.942Z,98175.97
2022-09-28T18:22:01.568Z,98179.72
2022-09-28T18:24:29.894Z,98176.56
2022-09-28T18:26:57.923Z,98173.00
2022-09-28T18:29:28.072Z,98179.25
2022-09-28T18:31:58.653Z,98182.53
2022-09-28T18:34:26.724Z,98186.78
2022-09-28T18:36:54.895Z,98185.91
2022-09-28T18:39:23.895Z,98179.91
2022-09-28T18:41:51.756Z,98178.22
2022-09-28T18:44:19.379Z,98183.38
2022-09-28T18:46:47.106Z,98179.00
2022-09-28T18:49:15.268Z,98190.03
2022-09-28T18:51:42.879Z,98187.59
2022-09-28T18:54:10.345Z,98192.59
2022-09-28T18:56:38.279Z,98182.59
2022-09-28T18:59:13.403Z,98190.44
2022-09-28T19:01:41.981Z,98194.22
2022-09-28T19:04:10.720Z,98191.72
2022-09-28T19:06:44.397Z,98188.50
2022-09-28T19:09:13.195Z,98190.75
2022-09-28T19:11:41.231Z,98196.19
2022-09-28T19:14:11.095Z,98187.53
2022-09-28T19:16:38.961Z,98189.75
2022-09-28T19:19:06.672Z,98192.25
2022-09-28T19:21:35.201Z,98192.91
2022-09-28T19:24:04.300Z,98191.25
2022-09-28T19:26:32.901Z,98192.06
2022-09-28T19:29:00.821Z,98194.59
2022-09-28T19:31:29.756Z,98187.06
2022-09-28T19:33:57.278Z,98186.63
2022-09-28T19:36:26.214Z,98185.75
2022-09-28T19:38:55.551Z,98191.75
2022-09-28T19:41:45.622Z,98190.59
2022-09-28T19:44:19.471Z,98184.34
2022-09-28T19:46:47.072Z,98183.31
2022-09-28T19:49:19.682Z,98181.06
2022-09-28T19:52:11.722Z,98172.69
2022-09-28T19:54:37.634Z,98185.63
2022-09-28T19:57:07.879Z,98177.25
2022-09-28T19:59:39.203Z,98170.97
2022-09-28T20:02:07.948Z,98175.78
2022-09-28T20:04:35.694Z,98175.16
2022-09-28T20:07:04.409Z,98173.72
2022-09-28T20:09:33.018Z,98173.50
2022-09-28T20:12:00.993Z,98174.09
2022-09-28T20:14:33.086Z,98173.69
2022-09-28T20:17:04.194Z,98166.63
2022-09-28T20:19:31.611Z,98167.19
2022-09-28T20:22:03.002Z,98165.97
2022-09-28T20:24:31.571Z,98161.34
2022-09-28T20:26:59.409Z,98168.66
2022-09-28T20:29:26.881Z,98168.22
2022-09-28T20:31:54.656Z,98168.22
2022-09-28T20:34:22.132Z,98160.75
2022-09-28T20:36:49.620Z,98147.22
2022-09-28T20:39:17.501Z,98147.00
2022-09-28T20:41:46.632Z,98147.59
2022-09-28T20:44:14.117Z,98143.91
2022-09-28T20:46:44.103Z,98143.09
2022-09-28T20:49:11.812Z,98139.94
2022-09-28T20:51:39.247Z,98132.44
2022-09-28T20:54:07.094Z,98145.09
2022-09-28T20:56:38.143Z,98130.31
2022-09-28T20:59:11.119Z,98144.25
2022-09-28T21:01:39.276Z,98137.00
2022-09-28T21:04:08.095Z,98146.94
2022-09-28T21:06:41.556Z,98136.94
2022-09-28T21:09:10.653Z,98135.94
2022-09-28T21:11:38.678Z,98140.72
2022-09-28T21:14:08.414Z,98135.22
2022-09-28T21:16:36.367Z,98137.81
2022-09-28T21:19:04.121Z,98130.59
2022-09-28T21:21:31.644Z,98126.34
2022-09-28T21:23:59.632Z,98135.16
2022-09-28T21:26:28.759Z,98135.16
2022-09-28T21:28:57.979Z,98139.78
2022-09-28T21:31:29.541Z,98135.47
2022-09-28T21:33:58.075Z,98143.84
2022-09-28T21:36:26.084Z,98140.63
2022-09-28T21:38:55.164Z,98146.44
2022-09-28T21:41:23.611Z,98138.22
2022-09-28T21:43:52.035Z,98141.56
2022-09-28T21:46:19.603Z,98133.22
2022-09-28T21:48:51.456Z,98131.53
2022-09-28T21:51:19.489Z,98126.69
2022-09-28T21:53:48.512Z,98126.37
2022-09-28T21:56:16.045Z,98129.25
2022-09-28T21:58:43.699Z,98129.91
2022-09-28T22:01:25.588Z,98132.81
2022-09-28T22:03:56.302Z,98128.63
2022-09-28T22:06:28.131Z,98128.56
2022-09-28T22:08:56.753Z,98130.09
2022-09-28T22:11:26.893Z,98125.13
2022-09-28T22:13:57.211Z,98139.97
2022-09-28T22:16:27.684Z,98130.53
2022-09-28T22:18:55.314Z,98128.44
2022-09-28T22:21:25.220Z,98129.16
2022-09-28T22:23:53.486Z,98125.94
2022-09-28T22:26:25.235Z,98127.28
2022-09-28T22:28:57.873Z,98118.00
2022-09-28T22:31:29.175Z,98108.78
2022-09-28T22:33:57.598Z,98121.03
2022-09-28T22:36:25.945Z,98119.25
2022-09-28T22:38:54.790Z,98113.63
2022-09-28T22:41:22.879Z,98116.56
2022-09-28T22:43:51.643Z,98115.94
2022-09-28T22:46:25.106Z,98119.66
2022-09-28T22:48:58.272Z,98114.50
2022-09-28T22:51:27.432Z,98125.56
2022-09-28T22:53:56.522Z,98128.63
2022-09-28T22:56:24.553Z,98124.91
2022-09-28T22:58:52.046Z,98132.69
2022-09-28T23:01:22.273Z,98125.84
2022-09-28T23:03:50.849Z,98123.34
2022-09-28T23:06:20.243Z,98121.84
2022-09-28T23:08:49.070Z,98121.22
2022-09-28T23:11:16.842Z,98118.44
2022-09-28T23:13:49.412Z,98110.00
2022-09-28T23:16:17.375Z,98120.06
2022-09-28T23:18:45.108Z,98109.28
2022-09-28T23:21:15.429Z,98110.72
2022-09-28T23:23:44.172Z,98120.25
2022-09-28T23:26:17.602Z,98111.75
2022-09-28T23:28:45.685Z,98103.34
2022-09-28T23:31:16.133Z,98110.63
2022-09-28T23:33:43.721Z,98112.38
2022-09-28T23:36:11.941Z,98111.69
2022-09-28T23:38:39.448Z,98119.53
2022-09-28T23:41:07.150Z,98121.47
2022-09-28T23:43:36.157Z,98121.22
2022-09-28T23:46:04.506Z,98129.38
2022-09-28T23:48:32.169Z,98129.00
2022-09-28T23:51:00.018Z,98127.69
2022-09-28T23:53:27.668Z,98131.47
2022-09-28T23:55:55.199Z,98116.78
2022-09-28T23:58:22.962Z,98129.00
